Time,TemperatureF,DewpointF,PressureIn,WindDirection,WindDirectionDegrees,WindSpeedMPH,WindSpeedGustMPH,Humidity,HourlyPrecipIn,Conditions,Clouds,dailyrainin,SoftwareType,DateUTC
2013-01-09 07:12:00,12.5,11.1,30.42,NNW,334,0.0,0.0,94,0.00,,,0.00,Wunderground v.1.15,2013-01-09 12:12:00,
2013-01-09 07:13:00,12.5,11.1,30.42,NNW,334,0.0,0.0,94,0.00,,,0.00,Wunderground v.1.15,2013-01-09 12:13:00,
2013-01-09 07:14:00,12.5,11.1,30.42,NNW,334,0.0,0.0,94,0.00,,,0.00,Wunderground v.1.15,2013-01-09 12:14:00,
2013-01-09 07:16:00,12.5,11.1,30.41,NNW,334,0.0,0.0,94,0.00,,,0.00,Wunderground v.1.15,2013-01-09 12:16:00,
2013-01-09 07:21:00,12.6,11.4,30.42,NNW,334,0.0,0.0,95,0.00,,,0.00,Wunderground v.1.15,2013-01-09 12:21:00,
2013-01-09 07:26:00,12.5,11.3,30.42,NNW,334,0.0,0.0,95,0.00,,,0.00,Wunderground v.1.15,2013-01-09 12:26:00,
2013-01-09 07:32:00,12.4,11.2,30.42,NNW,334,0.0,0.0,95,0.00,,,0.00,Wunderground v.1.15,2013-01-09 12:32:00,
2013-01-09 07:37:00,12.4,11.2,30.42,NNW,334,0.0,0.0,95,0.00,,,0.00,Wunderground v.1.15,2013-01-09 12:37:00,
2013-01-09 07:42:00,12.5,11.3,30.42,NNW,334,0.0,0.0,95,0.00,,,0.00,Wunderground v.1.15,2013-01-09 12:42:00,
2013-01-09 07:47:00,12.7,11.5,30.42,NNW,334,0.0,0.0,95,0.00,,,0.00,Wunderground v.1.15,2013-01-09 12:47:00,
2013-01-09 07:53:00,13.0,11.8,30.42,NNW,334,0.0,0.0,95,0.00,,,0.00,Wunderground v.1.15,2013-01-09 12:53:00,
2013-01-09 07:58:00,13.5,12.3,30.42,NNW,334,0.0,0.0,95,0.00,,,0.00,Wunderground v.1.15,2013-01-09 12:58:00,
2013-01-09 08:03:00,14.0,12.8,30.41,NNW,334,0.0,0.0,95,0.00,,,0.00,Wunderground v.1.15,2013-01-09 13:03:00,
2013-01-09 08:08:00,14.6,13.7,30.41,NNW,334,0.0,0.0,96,0.00,,,0.00,Wunderground v.1.15,2013-01-09 13:08:00,
2013-01-09 08:14:00,15.3,14.4,30.41,NNW,334,0.0,0.0,96,0.00,,,0.00,Wunderground v.1.15,2013-01-09 13:14:00,
2013-01-09 08:19:00,15.5,14.3,30.41,NNW,334,0.0,0.0,95,0.00,,,0.00,Wunderground v.1.15,2013-01-09 13:19:00,
2013-01-09 08:24:00,15.6,14.2,30.41,NNW,334,0.0,0.0,94,0.00,,,0.00,Wunderground v.1.15,2013-01-09 13:24:00,
2013-01-09 08:29:00,16.1,14.9,30.41,NNW,334,0.0,0.0,95,0.00,,,0.00,Wunderground v.1.15,2013-01-09 13:29:00,
2013-01-09 08:35:00,16.6,15.4,30.41,NNW,334,0.0,0.0,95,0.00,,,0.00,Wunderground v.1.15,2013-01-09 13:35:00,
2013-01-09 08:41:00,17.5,16.6,30.40,NNW,334,0.0,0.0,96,0.00,,,0.00,Wunderground v.1.15,2013-01-09 13:41:00,
2013-01-09 08:46:00,18.3,17.4,30.40,NNW,334,0.0,0.0,96,0.00,,,0.00,Wunderground v.1.15,2013-01-09 13:46:00,
2013-01-09 08:52:00,19.3,18.3,30.41,NNW,334,0.0,0.0,96,0.00,,,0.00,Wunderground v.1.15,2013-01-09 13:52:00,
2013-01-09 08:57:00,19.4,18.0,30.40,NNW,334,0.0,0.0,94,0.00,,,0.00,Wunderground v.1.15,2013-01-09 13:57:00,
2013-01-09 09:03:00,20.1,19.1,30.40,NNW,334,0.0,0.0,96,0.00,,,0.00,Wunderground v.1.15,2013-01-09 14:03:00,
2013-01-09 09:08:00,20.9,19.9,30.40,NNW,334,0.0,0.0,96,0.00,,,0.00,Wunderground v.1.15,2013-01-09 14:08:00,
2013-01-09 09:13:00,21.1,19.9,30.39,NNW,334,0.0,0.0,95,0.00,,,0.00,Wunderground v.1.15,2013-01-09 14:13:00,
2013-01-09 09:19:00,21.2,19.7,30.40,NNW,334,0.0,0.0,94,0.00,,,0.00,Wunderground v.1.15,2013-01-09 14:19:00,
2013-01-09 09:25:00,21.4,20.2,30.39,NNW,334,0.0,0.0,95,0.00,,,0.00,Wunderground v.1.15,2013-01-09 14:25:00,
2013-01-09 09:30:00,21.7,20.5,30.38,NNW,334,0.0,0.0,95,0.00,,,0.00,Wunderground v.1.15,2013-01-09 14:30:00,
2013-01-09 09:35:00,22.1,20.9,30.38,NNW,334,0.0,0.0,95,0.00,,,0.00,Wunderground v.1.15,2013-01-09 14:35:00,
2013-01-09 09:40:00,22.8,21.8,30.39,NNW,334,0.0,0.0,96,0.00,,,0.00,Wunderground v.1.15,2013-01-09 14:40:00,
2013-01-09 09:45:00,23.3,22.1,30.39,NNW,334,0.0,0.0,95,0.00,,,0.00,Wunderground v.1.15,2013-01-09 14:45:00,
2013-01-09 09:50:00,23.7,22.5,30.38,NNW,334,0.0,0.0,95,0.00,,,0.00,Wunderground v.1.15,2013-01-09 14:50:00,
2013-01-09 09:56:00,23.9,22.4,30.38,NNW,334,0.0,0.0,94,0.00,,,0.00,Wunderground v.1.15,2013-01-09 14:56:00,
2013-01-09 10:01:00,24.3,22.8,30.38,NNW,334,0.0,0.0,94,0.00,,,0.00,Wunderground v.1.15,2013-01-09 15:01:00,
2013-01-09 10:07:00,24.7,23.2,30.37,NNW,334,0.0,0.0,94,0.00,,,0.00,Wunderground v.1.15,2013-01-09 15:07:00,
2013-01-09 10:12:00,24.9,23.4,30.37,NNW,334,0.0,0.0,94,0.00,,,0.00,Wunderground v.1.15,2013-01-09 15:12:00,
2013-01-09 10:17:00,25.2,23.5,30.37,NNW,334,0.0,0.0,93,0.00,,,0.00,Wunderground v.1.15,2013-01-09 15:17:00,
2013-01-09 10:23:00,25.5,23.5,30.36,NNW,334,0.0,0.0,92,0.00,,,0.00,Wunderground v.1.15,2013-01-09 15:23:00,
2013-01-09 10:28:00,25.9,23.9,30.35,NNW,334,0.0,0.0,92,0.00,,,0.00,Wunderground v.1.15,2013-01-09 15:28:00,
2013-01-09 10:33:00,26.5,24.2,30.35,NNW,334,0.0,0.0,91,0.00,,,0.00,Wunderground v.1.15,2013-01-09 15:33:00,
2013-01-09 10:38:00,27.1,24.8,30.34,NNW,334,0.0,0.0,91,0.00,,,0.00,Wunderground v.1.15,2013-01-09 15:38:00,
2013-01-09 10:44:00,27.9,24.8,30.33,NNW,334,0.0,0.0,88,0.00,,,0.00,Wunderground v.1.15,2013-01-09 15:44:00,
2013-01-09 10:49:00,28.2,24.8,30.33,NNW,334,0.0,1.0,87,0.00,,,0.00,Wunderground v.1.15,2013-01-09 15:49:00,
2013-01-09 10:54:00,28.6,24.9,30.32,NNW,334,0.0,0.0,86,0.00,,,0.00,Wunderground v.1.15,2013-01-09 15:54:00,
2013-01-09 10:59:00,29.0,25.1,30.32,NNW,334,0.0,2.0,85,0.00,,,0.00,Wunderground v.1.15,2013-01-09 15:59:00,
2013-01-09 11:04:00,29.4,25.2,30.31,NNW,334,0.0,2.0,84,0.00,,,0.00,Wunderground v.1.15,2013-01-09 16:04:00,
2013-01-09 11:09:00,29.6,25.4,30.31,NNW,334,1.0,2.0,84,0.00,,,0.00,Wunderground v.1.15,2013-01-09 16:09:00,
2013-01-09 11:15:00,29.8,25.3,30.30,NNW,346,1.0,4.0,83,0.00,,,0.00,Wunderground v.1.15,2013-01-09 16:15:00,
2013-01-09 11:20:00,29.9,25.4,30.30,NNW,346,2.0,2.0,83,0.00,,,0.00,Wunderground v.1.15,2013-01-09 16:20:00,
2013-01-09 11:25:00,30.2,25.7,30.29,NNW,346,1.0,2.0,83,0.00,,,0.00,Wunderground v.1.15,2013-01-09 16:25:00,
2013-01-09 11:30:00,30.4,25.6,30.28,NNW,346,1.0,1.0,82,0.00,,,0.00,Wunderground v.1.15,2013-01-09 16:30:00,
2013-01-09 11:36:00,30.7,25.9,30.28,NNW,346,0.0,1.0,82,0.00,,,0.00,Wunderground v.1.15,2013-01-09 16:36:00,
2013-01-09 11:41:00,31.0,25.9,30.28,NNW,346,0.0,2.0,81,0.00,,,0.00,Wunderground v.1.15,2013-01-09 16:41:00,
2013-01-09 11:46:00,31.0,25.9,30.28,NNW,346,0.0,2.0,81,0.00,,,0.00,Wunderground v.1.15,2013-01-09 16:46:00,
2013-01-09 11:51:00,31.0,25.6,30.28,NNW,346,0.0,0.0,80,0.00,,,0.00,Wunderground v.1.15,2013-01-09 16:51:00,
2013-01-09 11:56:00,31.1,26.0,30.27,NNW,346,0.0,0.0,81,0.00,,,0.00,Wunderground v.1.15,2013-01-09 16:56:00,
2013-01-09 12:01:00,31.0,25.6,30.26,NNW,346,0.0,1.0,80,0.00,,,0.00,Wunderground v.1.15,2013-01-09 17:01:00,
2013-01-09 12:06:00,30.8,25.4,30.27,NNW,346,0.0,1.0,80,0.00,,,0.00,Wunderground v.1.15,2013-01-09 17:06:00,
2013-01-09 12:12:00,30.8,25.7,30.26,NNW,346,0.0,0.0,81,0.00,,,0.00,Wunderground v.1.15,2013-01-09 17:12:00,
2013-01-09 12:17:00,30.9,25.5,30.25,NNW,346,0.0,1.0,80,0.00,,,0.00,Wunderground v.1.15,2013-01-09 17:17:00,
2013-01-09 12:23:00,31.1,25.7,30.24,NNW,346,0.0,0.0,80,0.00,,,0.00,Wunderground v.1.15,2013-01-09 17:23:00,
2013-01-09 12:28:00,31.6,26.1,30.25,NNW,346,0.0,0.0,80,0.00,,,0.00,Wunderground v.1.15,2013-01-09 17:28:00,
2013-01-09 12:33:00,32.1,26.6,30.24,NNW,346,0.0,0.0,80,0.00,,,0.00,Wunderground v.1.15,2013-01-09 17:33:00,
2013-01-09 12:38:00,32.5,26.4,30.22,NNW,346,0.0,0.0,78,0.00,,,0.00,Wunderground v.1.15,2013-01-09 17:38:00,
2013-01-09 12:43:00,32.7,26.3,30.22,NNW,346,0.0,0.0,77,0.00,,,0.00,Wunderground v.1.15,2013-01-09 17:43:00,
2013-01-09 12:48:00,32.9,26.8,30.21,NNW,346,0.0,0.0,78,0.00,,,0.00,Wunderground v.1.15,2013-01-09 17:48:00,
2013-01-09 12:53:00,33.0,26.6,30.21,NNW,346,0.0,1.0,77,0.00,,,0.00,Wunderground v.1.15,2013-01-09 17:53:00,
2013-01-09 12:58:00,33.1,26.7,30.21,NNW,346,0.0,1.0,77,0.00,,,0.00,Wunderground v.1.15,2013-01-09 17:58:00,
2013-01-09 13:03:00,33.2,26.8,30.20,NNW,346,0.0,0.0,77,0.00,,,0.00,Wunderground v.1.15,2013-01-09 18:03:00,
2013-01-09 13:09:00,33.3,27.2,30.20,NNW,346,0.0,0.0,78,0.00,,,0.00,Wunderground v.1.15,2013-01-09 18:09:00,
2013-01-09 13:14:00,33.4,27.0,30.19,NNW,346,0.0,0.0,77,0.00,,,0.00,Wunderground v.1.15,2013-01-09 18:14:00,
2013-01-09 13:19:00,33.4,27.0,30.18,NNW,346,0.0,0.0,77,0.00,,,0.00,Wunderground v.1.15,2013-01-09 18:19:00,
2013-01-09 13:24:00,33.4,27.0,30.17,NNW,346,0.0,0.0,77,0.00,,,0.00,Wunderground v.1.15,2013-01-09 18:24:00,
2013-01-09 13:29:00,33.4,27.0,30.16,NNW,346,0.0,0.0,77,0.00,,,0.00,Wunderground v.1.15,2013-01-09 18:29:00,
2013-01-09 13:35:00,33.4,27.0,30.15,NNW,346,0.0,0.0,77,0.00,,,0.00,Wunderground v.1.15,2013-01-09 18:35:00,
2013-01-09 13:40:00,33.4,27.0,30.15,NNW,346,0.0,0.0,77,0.00,,,0.00,Wunderground v.1.15,2013-01-09 18:40:00,
2013-01-09 13:42:00,33.4,27.0,30.15,NNW,346,0.0,1.0,77,0.00,,,0.00,Wunderground v.1.15,2013-01-09 18:42:00,
2013-01-09 13:43:00,33.4,27.0,30.15,NNW,346,0.0,1.0,77,0.00,,,0.00,Wunderground v.1.15,2013-01-09 18:43:00,
2013-01-09 13:44:00,33.4,27.0,30.15,NNW,346,0.0,1.0,77,0.00,,,0.00,Wunderground v.1.15,2013-01-09 18:44:00,
2013-01-09 13:48:00,33.4,27.0,30.15,NNW,346,0.0,1.0,77,0.00,,,0.00,Wunderground v.1.15,2013-01-09 18:48:00,
2013-01-09 13:49:00,33.4,27.0,30.15,NNW,346,0.0,1.0,77,0.00,,,0.00,Wunderground v.1.15,2013-01-09 18:49:00,
2013-01-09 13:50:00,33.5,27.1,30.15,NNW,346,0.0,0.0,77,0.00,,,0.00,Wunderground v.1.15,2013-01-09 18:50:00,
2013-01-09 13:54:00,33.5,27.1,30.14,NNW,346,0.0,0.0,77,0.00,,,0.00,Wunderground v.1.15,2013-01-09 18:54:00,
2013-01-09 13:58:00,33.5,27.1,30.14,NNW,346,0.0,0.0,77,0.00,,,0.00,Wunderground v.1.15,2013-01-09 18:58:00,
2013-01-09 14:03:00,33.5,27.4,30.14,NNW,346,0.0,0.0,78,0.00,,,0.00,Wunderground v.1.15,2013-01-09 19:03:00,
2013-01-09 14:08:00,33.7,27.9,30.15,NNW,346,0.0,0.0,79,0.00,,,0.00,Wunderground v.1.15,2013-01-09 19:08:00,
2013-01-09 14:14:00,33.9,27.8,30.15,NNW,346,0.0,0.0,78,0.00,,,0.00,Wunderground v.1.15,2013-01-09 19:14:00,
2013-01-09 14:20:00,33.9,27.8,30.15,NNW,346,0.0,0.0,78,0.00,,,0.00,Wunderground v.1.15,2013-01-09 19:20:00,
2013-01-09 14:26:00,34.0,28.5,30.16,NNW,346,0.0,1.0,80,0.00,,,0.00,Wunderground v.1.15,2013-01-09 19:26:00,
2013-01-09 14:31:00,34.5,29.9,30.16,SSW,212,0.0,2.0,83,0.00,,,0.00,Wunderground v.1.15,2013-01-09 19:31:00,
2013-01-09 14:37:00,35.3,30.9,30.17,SSW,202,1.0,3.0,84,0.00,,,0.00,Wunderground v.1.15,2013-01-09 19:37:00,
2013-01-09 14:42:00,35.9,31.2,30.16,SSW,192,2.0,3.0,83,0.00,,,0.00,Wunderground v.1.15,2013-01-09 19:42:00,
2013-01-09 14:47:00,36.3,31.6,30.16,SSW,192,3.0,3.0,83,0.00,,,0.00,Wunderground v.1.15,2013-01-09 19:47:00,
2013-01-09 14:53:00,36.6,31.9,30.16,South,181,3.0,4.0,83,0.00,,,0.00,Wunderground v.1.15,2013-01-09 19:53:00,
2013-01-09 14:58:00,36.8,32.1,30.16,South,169,3.0,4.0,83,0.00,,,0.00,Wunderground v.1.15,2013-01-09 19:58:00,
2013-01-09 15:03:00,36.9,32.2,30.16,SSW,200,3.0,5.0,83,0.00,,,0.00,Wunderground v.1.15,2013-01-09 20:03:00,
2013-01-09 15:09:00,37.0,32.3,30.14,South,181,3.0,6.0,83,0.00,,,0.00,Wunderground v.1.15,2013-01-09 20:09:00,
2013-01-09 15:15:00,37.0,32.3,30.14,SSW,208,3.0,5.0,83,0.00,,,0.00,Wunderground v.1.15,2013-01-09 20:15:00,
2013-01-09 15:21:00,36.9,32.5,30.14,SSW,198,3.0,3.0,84,0.00,,,0.00,Wunderground v.1.15,2013-01-09 20:21:00,
2013-01-09 15:26:00,36.9,32.5,30.13,South,179,3.0,5.0,84,0.00,,,0.00,Wunderground v.1.15,2013-01-09 20:26:00,
2013-01-09 15:32:00,36.8,32.7,30.12,South,191,3.0,3.0,85,0.00,,,0.00,Wunderground v.1.15,2013-01-09 20:32:00,
2013-01-09 15:37:00,36.7,32.6,30.11,SSE,167,3.0,3.0,85,0.00,,,0.00,Wunderground v.1.15,2013-01-09 20:37:00,
2013-01-09 15:43:00,36.6,32.5,30.10,South,181,2.0,2.0,85,0.00,,,0.00,Wunderground v.1.15,2013-01-09 20:43:00,
2013-01-09 15:48:00,36.5,32.7,30.10,South,181,1.0,4.0,86,0.00,,,0.00,Wunderground v.1.15,2013-01-09 20:48:00,
2013-01-09 15:54:00,36.4,32.6,30.09,South,183,1.0,1.0,86,0.00,,,0.00,Wunderground v.1.15,2013-01-09 20:54:00,
2013-01-09 15:59:00,36.1,32.3,30.08,SSE,155,1.0,2.0,86,0.00,,,0.00,Wunderground v.1.15,2013-01-09 20:59:00,
2013-01-09 16:04:00,36.0,32.5,30.08,SSW,200,1.0,2.0,87,0.00,,,0.00,Wunderground v.1.15,2013-01-09 21:04:00,
2013-01-09 16:09:00,36.0,32.5,30.08,South,171,1.0,2.0,87,0.00,,,0.00,Wunderground v.1.15,2013-01-09 21:09:00,
2013-01-09 16:14:00,36.0,32.5,30.08,South,171,1.0,1.0,87,0.00,,,0.00,Wunderground v.1.15,2013-01-09 21:14:00,
2013-01-09 16:19:00,35.9,32.7,30.08,South,171,0.0,1.0,88,0.00,,,0.00,Wunderground v.1.15,2013-01-09 21:19:00,
2013-01-09 16:24:00,35.9,32.7,30.07,South,171,0.0,0.0,88,0.00,,,0.00,Wunderground v.1.15,2013-01-09 21:24:00,
2013-01-09 16:29:00,35.8,32.6,30.06,South,171,0.0,0.0,88,0.00,,,0.00,Wunderground v.1.15,2013-01-09 21:29:00,
2013-01-09 16:34:00,35.2,32.0,30.05,South,171,0.0,0.0,88,0.00,,,0.00,Wunderground v.1.15,2013-01-09 21:34:00,
2013-01-09 16:39:00,35.0,32.1,30.06,South,171,0.0,0.0,89,0.00,,,0.00,Wunderground v.1.15,2013-01-09 21:39:00,
2013-01-09 16:45:00,35.0,32.1,30.06,South,171,0.0,0.0,89,0.00,,,0.00,Wunderground v.1.15,2013-01-09 21:45:00,
2013-01-09 16:50:00,34.9,32.0,30.07,South,171,0.0,0.0,89,0.00,,,0.00,Wunderground v.1.15,2013-01-09 21:50:00,
2013-01-09 16:55:00,34.7,31.8,30.06,South,171,0.0,0.0,89,0.00,,,0.00,Wunderground v.1.15,2013-01-09 21:55:00,
2013-01-09 17:00:00,34.6,32.2,30.04,SSE,161,0.0,0.0,91,0.00,,,0.00,Wunderground v.1.15,2013-01-09 22:00:00,
2013-01-09 17:06:00,34.9,32.5,30.02,East,98,1.0,2.0,91,0.00,,,0.00,Wunderground v.1.15,2013-01-09 22:06:00,
2013-01-09 17:11:00,35.0,32.9,30.00,SE,132,3.0,9.0,92,0.00,,,0.00,Wunderground v.1.15,2013-01-09 22:11:00,
2013-01-09 17:17:00,35.4,33.3,29.99,SE,141,3.0,9.0,92,0.00,,,0.00,Wunderground v.1.15,2013-01-09 22:17:00,
2013-01-09 17:22:00,35.5,33.4,29.99,SE,132,2.0,4.0,92,0.00,,,0.00,Wunderground v.1.15,2013-01-09 22:22:00,
2013-01-09 17:27:00,35.6,33.5,29.98,ESE,116,1.0,4.0,92,0.00,,,0.00,Wunderground v.1.15,2013-01-09 22:27:00,
2013-01-09 17:32:00,35.7,33.6,29.99,SE,135,1.0,1.0,92,0.00,,,0.00,Wunderground v.1.15,2013-01-09 22:32:00,
2013-01-09 17:38:00,35.8,33.7,29.99,SE,135,0.0,1.0,92,0.00,,,0.00,Wunderground v.1.15,2013-01-09 22:38:00,
2013-01-09 17:43:00,35.4,33.3,29.98,NE,49,0.0,2.0,92,0.00,,,0.00,Wunderground v.1.15,2013-01-09 22:43:00,
2013-01-09 17:49:00,34.9,33.1,29.97,NE,49,0.0,2.0,93,0.00,,,0.00,Wunderground v.1.15,2013-01-09 22:49:00,
2013-01-09 17:54:00,34.5,32.7,29.99,WNW,294,0.0,2.0,93,0.00,,,0.00,Wunderground v.1.15,2013-01-09 22:54:00,
2013-01-09 17:59:00,34.6,33.1,29.99,WNW,294,1.0,2.0,94,0.00,,,0.00,Wunderground v.1.15,2013-01-09 22:59:00,
2013-01-09 18:04:00,34.8,33.2,29.99,WNW,294,1.0,1.0,94,0.00,,,0.00,Wunderground v.1.15,2013-01-09 23:04:00,
2013-01-09 18:10:00,34.7,33.2,29.98,NNE,21,2.0,4.0,94,0.00,,,0.00,Wunderground v.1.15,2013-01-09 23:10:00,
2013-01-09 18:15:00,34.5,33.0,29.97,NNE,27,2.0,4.0,94,0.00,,,0.00,Wunderground v.1.15,2013-01-09 23:15:00,
2013-01-09 18:20:00,34.5,33.0,29.96,ESE,123,1.0,1.0,94,0.00,,,0.00,Wunderground v.1.15,2013-01-09 23:20:00,
2013-01-09 18:25:00,34.4,32.9,29.96,ESE,123,0.0,1.0,94,0.00,,,0.00,Wunderground v.1.15,2013-01-09 23:25:00,
2013-01-09 18:30:00,34.3,32.8,29.96,ESE,122,0.0,0.0,94,0.00,,,0.00,Wunderground v.1.15,2013-01-09 23:30:00,
2013-01-09 18:35:00,34.1,32.6,29.96,ESE,122,0.0,0.0,94,0.00,,,0.00,Wunderground v.1.15,2013-01-09 23:35:00,
2013-01-09 18:41:00,33.8,32.3,29.95,ESE,122,0.0,0.0,94,0.00,,,0.00,Wunderground v.1.15,2013-01-09 23:41:00,
2013-01-09 18:47:00,33.7,32.2,29.95,ESE,122,0.0,0.0,94,0.00,,,0.00,Wunderground v.1.15,2013-01-09 23:47:00,
2013-01-09 18:52:00,33.5,32.2,29.95,ESE,123,0.0,0.0,95,0.00,,,0.00,Wunderground v.1.15,2013-01-09 23:52:00,
2013-01-09 18:58:00,33.4,32.1,29.95,ESE,123,0.0,0.0,95,0.00,,,0.00,Wunderground v.1.15,2013-01-09 23:58:00,
2013-01-09 19:03:00,33.5,32.5,29.95,ESE,123,0.0,0.0,96,0.00,,,0.00,Wunderground v.1.15,2013-01-10 00:03:00,
2013-01-09 19:08:00,33.5,32.5,29.94,SE,132,0.0,2.0,96,0.00,,,0.00,Wunderground v.1.15,2013-01-10 00:08:00,
2013-01-09 19:13:00,34.1,33.3,29.93,SE,132,1.0,2.0,97,0.00,,,0.00,Wunderground v.1.15,2013-01-10 00:13:00,
2013-01-09 19:18:00,34.7,33.7,29.93,SE,132,0.0,2.0,96,0.00,,,0.00,Wunderground v.1.15,2013-01-10 00:18:00,
2013-01-09 19:23:00,35.2,34.2,29.92,South,175,0.0,0.0,96,0.00,,,0.00,Wunderground v.1.15,2013-01-10 00:23:00,
2013-01-09 19:29:00,35.8,34.2,29.92,South,186,0.0,3.0,94,0.00,,,0.00,Wunderground v.1.15,2013-01-10 00:29:00,
2013-01-09 19:34:00,35.8,33.7,29.92,South,186,1.0,2.0,92,0.00,,,0.00,Wunderground v.1.15,2013-01-10 00:34:00,
2013-01-09 19:40:00,36.2,34.4,29.92,SSW,193,1.0,2.0,93,0.00,,,0.00,Wunderground v.1.15,2013-01-10 00:40:00,
2013-01-09 19:45:00,37.0,34.9,29.92,SSW,196,1.0,5.0,92,0.00,,,0.00,Wunderground v.1.15,2013-01-10 00:45:00,
2013-01-09 19:50:00,37.4,35.0,29.92,SW,232,1.0,1.0,91,0.00,,,0.00,Wunderground v.1.15,2013-01-10 00:50:00,
2013-01-09 19:55:00,37.7,34.8,29.92,SSW,205,1.0,5.0,89,0.00,,,0.00,Wunderground v.1.15,2013-01-10 00:55:00,
2013-01-09 20:01:00,38.4,35.2,29.92,SW,222,2.0,5.0,88,0.00,,,0.00,Wunderground v.1.15,2013-01-10 01:01:00,
2013-01-09 20:06:00,38.7,35.2,29.92,SW,225,3.0,5.0,87,0.00,,,0.00,Wunderground v.1.15,2013-01-10 01:06:00,
2013-01-09 20:11:00,38.7,34.9,29.93,SSW,200,2.0,4.0,86,0.00,,,0.00,Wunderground v.1.15,2013-01-10 01:11:00,
2013-01-09 20:16:00,38.7,34.9,29.92,SW,236,2.0,5.0,86,0.00,,,0.00,Wunderground v.1.15,2013-01-10 01:16:00,
2013-01-09 20:21:00,38.7,34.9,29.92,SW,236,3.0,3.0,86,0.00,,,0.00,Wunderground v.1.15,2013-01-10 01:21:00,
2013-01-09 20:27:00,38.3,34.5,29.92,SW,221,2.0,3.0,86,0.00,,,0.00,Wunderground v.1.15,2013-01-10 01:27:00,
2013-01-09 20:32:00,38.0,33.9,29.91,SSW,199,2.0,2.0,85,0.00,,,0.00,Wunderground v.1.15,2013-01-10 01:32:00,
2013-01-09 20:37:00,37.7,33.9,29.91,WSW,240,1.0,4.0,86,0.00,,,0.00,Wunderground v.1.15,2013-01-10 01:37:00,
2013-01-09 20:42:00,37.4,33.6,29.91,SSW,200,1.0,4.0,86,0.00,,,0.00,Wunderground v.1.15,2013-01-10 01:42:00,
2013-01-09 20:48:00,37.2,33.4,29.91,SW,228,2.0,4.0,86,0.00,,,0.00,Wunderground v.1.15,2013-01-10 01:48:00,
2013-01-09 20:53:00,37.1,33.3,29.90,WSW,238,3.0,10.0,86,0.00,,,0.00,Wunderground v.1.15,2013-01-10 01:53:00,
2013-01-09 20:58:00,37.1,33.0,29.90,SW,221,4.0,10.0,85,0.00,,,0.00,Wunderground v.1.15,2013-01-10 01:58:00,
2013-01-09 21:03:00,37.0,32.6,29.89,SSW,210,5.0,7.0,84,0.00,,,0.00,Wunderground v.1.15,2013-01-10 02:03:00,
2013-01-09 21:08:00,36.9,32.5,29.89,SSW,202,5.0,7.0,84,0.00,,,0.00,Wunderground v.1.15,2013-01-10 02:08:00,
2013-01-09 21:13:00,36.5,32.1,29.89,SSW,199,5.0,6.0,84,0.00,,,0.00,Wunderground v.1.15,2013-01-10 02:13:00,
2013-01-09 21:19:00,36.2,31.8,29.88,SSW,195,5.0,6.0,84,0.00,,,0.00,Wunderground v.1.15,2013-01-10 02:19:00,
2013-01-09 21:24:00,36.1,31.7,29.89,SSW,207,5.0,7.0,84,0.00,,,0.00,Wunderground v.1.15,2013-01-10 02:24:00,
2013-01-09 21:30:00,35.9,31.5,29.88,SSW,210,5.0,5.0,84,0.00,,,0.00,Wunderground v.1.15,2013-01-10 02:30:00,
2013-01-09 21:35:00,35.7,31.3,29.88,SSW,209,4.0,5.0,84,0.00,,,0.00,Wunderground v.1.15,2013-01-10 02:35:00,
2013-01-09 21:40:00,35.4,31.0,29.88,South,190,3.0,3.0,84,0.00,,,0.00,Wunderground v.1.15,2013-01-10 02:40:00,
2013-01-09 21:45:00,35.2,31.1,29.88,SSW,207,2.0,4.0,85,0.00,,,0.00,Wunderground v.1.15,2013-01-10 02:45:00,
2013-01-09 21:50:00,35.0,30.7,29.89,SSE,161,2.0,3.0,84,0.00,,,0.00,Wunderground v.1.15,2013-01-10 02:50:00,
2013-01-09 21:56:00,34.7,30.7,29.89,WSW,255,2.0,5.0,85,0.00,,,0.00,Wunderground v.1.15,2013-01-10 02:56:00,
2013-01-09 22:01:00,34.5,30.5,29.88,SSW,198,2.0,3.0,85,0.00,,,0.00,Wunderground v.1.15,2013-01-10 03:01:00,
2013-01-09 22:06:00,34.5,30.5,29.88,SW,219,4.0,5.0,85,0.00,,,0.00,Wunderground v.1.15,2013-01-10 03:06:00,
2013-01-09 22:12:00,34.4,30.1,29.89,SSW,206,3.0,4.0,84,0.00,,,0.00,Wunderground v.1.15,2013-01-10 03:12:00,
2013-01-09 22:18:00,34.2,29.9,29.89,WSW,240,2.0,5.0,84,0.00,,,0.00,Wunderground v.1.15,2013-01-10 03:18:00,
2013-01-09 22:23:00,33.9,29.6,29.89,SW,227,1.0,2.0,84,0.00,,,0.00,Wunderground v.1.15,2013-01-10 03:23:00,
2013-01-09 22:28:00,33.8,29.8,29.90,West,279,1.0,3.0,85,0.00,,,0.00,Wunderground v.1.15,2013-01-10 03:28:00,
2013-01-09 22:33:00,33.5,29.5,29.90,NW,304,1.0,2.0,85,0.00,,,0.00,Wunderground v.1.15,2013-01-10 03:33:00,
2013-01-09 22:39:00,33.3,29.3,29.90,NW,304,1.0,2.0,85,0.00,,,0.00,Wunderground v.1.15,2013-01-10 03:39:00,
2013-01-09 22:44:00,33.1,29.1,29.90,NW,304,0.0,0.0,85,0.00,,,0.00,Wunderground v.1.15,2013-01-10 03:44:00,
2013-01-09 22:49:00,32.6,28.6,29.90,NW,304,0.0,0.0,85,0.00,,,0.00,Wunderground v.1.15,2013-01-10 03:49:00,
2013-01-09 22:55:00,32.2,28.8,29.89,SW,234,0.0,2.0,87,0.00,,,0.00,Wunderground v.1.15,2013-01-10 03:55:00,